createdAt,value
2022-09-30T08:35:21.129Z,25.80
2022-09-30T08:37:53.145Z,25.50
2022-09-30T08:40:35.474Z,25.50
2022-09-30T08:43:37.931Z,25.50
2022-09-30T08:46:23.653Z,25.50
2022-09-30T08:49:15.652Z,25.50
2022-09-30T08:51:51.275Z,25.50
2022-09-30T08:54:27.982Z,25.50
2022-09-30T08:56:58.525Z,25.50
2022-09-30T08:59:40.477Z,25.50
2022-09-30T09:02:26.395Z,25.50
2022-09-30T09:05:00.645Z,25.50
2022-09-30T09:07:57.476Z,25.50
2022-09-30T09:10:48.799Z,25.50
2022-09-30T09:13:38.499Z,25.50
2022-09-30T09:16:42.798Z,25.50
2022-09-30T09:19:32.096Z,25.50
2022-09-30T09:22:04.637Z,25.50
2022-09-30T09:24:55.071Z,25.50
2022-09-30T09:27:35.432Z,25.50
2022-09-30T09:30:12.448Z,25.50
2022-09-30T09:32:42.910Z,25.50
2022-09-30T09:35:19.906Z,25.50
2022-09-30T09:38:27.778Z,25.60
2022-09-30T09:41:36.677Z,25.50
2022-09-30T09:44:31.903Z,25.50
2022-09-30T09:47:15.796Z,25.60
2022-09-30T09:49:48.127Z,25.50
2022-09-30T09:52:56.910Z,25.60
2022-09-30T09:55:26.936Z,25.60
2022-09-30T09:58:19.098Z,25.60
2022-09-30T10:01:07.566Z,25.50
2022-09-30T10:03:39.759Z,25.50
2022-09-30T10:06:14.539Z,25.50
2022-09-30T10:09:03.752Z,25.50
2022-09-30T10:11:33.442Z,25.50
2022-09-30T10:14:03.527Z,25.50
2022-09-30T10:16:40.081Z,25.50
2022-09-30T10:19:32.476Z,25.50
2022-09-30T10:22:22.788Z,25.40
2022-09-30T10:24:52.483Z,25.40
2022-09-30T10:27:34.420Z,25.30
2022-09-30T10:30:05.529Z,25.20
2022-09-30T10:32:35.460Z,25.10
2022-09-30T10:35:24.181Z,25.10
2022-09-30T10:37:56.013Z,25.00
2022-09-30T10:40:30.848Z,24.90
2022-09-30T10:43:01.019Z,24.90
2022-09-30T10:45:40.441Z,24.90
2022-09-30T10:48:19.924Z,24.80
2022-09-30T10:50:58.576Z,24.80
2022-09-30T10:53:35.281Z,24.80
2022-09-30T10:56:07.081Z,24.70
2022-09-30T11:01:42.495Z,24.70
2022-09-30T11:04:43.733Z,24.60
2022-09-30T11:07:42.371Z,24.60
2022-09-30T11:10:43.781Z,24.60
2022-09-30T11:13:34.101Z,24.60
2022-09-30T11:16:28.025Z,24.60
2022-09-30T11:19:32.585Z,24.60
2022-09-30T11:22:18.946Z,24.60
2022-09-30T11:24:51.389Z,24.70
2022-09-30T11:27:54.263Z,24.70
2022-09-30T11:30:35.141Z,24.70
2022-09-30T11:33:44.167Z,24.70
2022-09-30T11:36:46.353Z,24.70
2022-09-30T11:39:56.073Z,24.70
2022-09-30T11:42:49.396Z,24.70
2022-09-30T11:45:58.139Z,24.70
2022-09-30T11:48:57.922Z,24.70
2022-09-30T11:51:59.558Z,24.70
2022-09-30T11:55:13.074Z,24.70
2022-09-30T11:58:22.275Z,24.70
2022-09-30T12:00:59.951Z,24.70
2022-09-30T12:03:40.528Z,24.70
2022-09-30T12:06:32.495Z,24.70
2022-09-30T12:09:10.385Z,24.70
2022-09-30T12:11:54.702Z,24.70
2022-09-30T12:14:39.149Z,24.60
2022-09-30T12:17:20.268Z,24.70
2022-09-30T12:19:57.131Z,24.70
2022-09-30T12:22:41.953Z,24.70
2022-09-30T12:25:33.719Z,24.70
2022-09-30T12:28:39.226Z,24.70
2022-09-30T12:31:37.987Z,24.70
2022-09-30T12:34:39.385Z,24.70
2022-09-30T12:37:40.272Z,24.70
2022-09-30T12:40:41.142Z,24.70
2022-09-30T12:43:40.680Z,24.70
2022-09-30T12:46:39.373Z,24.70
2022-09-30T12:49:16.635Z,24.70
2022-09-30T12:51:50.972Z,24.70
2022-09-30T12:54:28.766Z,24.70
2022-09-30T12:57:04.407Z,24.70
2022-09-30T12:59:37.967Z,24.70
2022-09-30T13:02:10.557Z,24.70
2022-09-30T13:04:44.761Z,24.70
2022-09-30T13:07:20.858Z,24.70
2022-09-30T13:10:29.585Z,24.70
2022-09-30T13:13:25.406Z,24.70
2022-09-30T13:16:04.767Z,24.70
2022-09-30T13:19:00.651Z,24.70
2022-09-30T13:21:31.992Z,24.70
2022-09-30T13:24:02.615Z,24.70
2022-09-30T13:26:41.992Z,24.70
2022-09-30T13:29:36.694Z,24.70
2022-09-30T13:32:08.446Z,24.70
2022-09-30T13:34:56.774Z,24.70
2022-09-30T13:37:36.582Z,24.70
2022-09-30T13:40:09.202Z,24.70
2022-09-30T13:42:48.298Z,24.70
2022-09-30T13:45:33.625Z,24.70
2022-09-30T13:48:27.498Z,24.70
2022-09-30T13:51:01.738Z,24.70
2022-09-30T13:53:54.252Z,24.70
2022-09-30T13:56:33.005Z,24.70
2022-09-30T13:59:39.555Z,24.70
2022-09-30T14:02:48.329Z,24.70
2022-09-30T14:05:54.937Z,24.70
2022-09-30T14:09:06.408Z,24.70
2022-09-30T14:11:54.637Z,24.70
2022-09-30T14:14:54.817Z,24.70
2022-09-30T14:18:05.542Z,24.70
2022-09-30T14:21:05.577Z,24.70
2022-09-30T14:23:35.341Z,24.70
2022-09-30T14:26:44.477Z,24.70
2022-09-30T14:29:46.039Z,24.70
2022-09-30T14:32:36.960Z,24.70
2022-09-30T14:35:10.598Z,24.70
2022-09-30T14:37:46.305Z,24.70
2022-09-30T14:40:25.797Z,24.70
2022-09-30T14:43:04.623Z,24.70
2022-09-30T14:45:41.505Z,24.70
2022-09-30T14:48:19.093Z,24.60
2022-09-30T14:50:55.852Z,24.70
2022-09-30T14:53:29.501Z,24.70
2022-09-30T14:56:00.269Z,24.70
2022-09-30T14:58:32.885Z,24.70
2022-09-30T15:01:14.623Z,24.70
2022-09-30T15:03:49.373Z,24.70
2022-09-30T15:06:32.500Z,24.70
2022-09-30T15:09:17.043Z,24.70
2022-09-30T15:11:49.530Z,24.70
2022-09-30T15:14:26.793Z,24.60
2022-09-30T15:17:03.765Z,24.60
2022-09-30T15:19:44.218Z,24.60
2022-09-30T15:22:16.251Z,24.60
2022-09-30T15:24:47.153Z,24.60
2022-09-30T15:27:28.859Z,24.60
2022-09-30T15:30:30.887Z,24.60
2022-09-30T15:33:07.734Z,24.60
2022-09-30T15:35:37.555Z,24.60
2022-09-30T15:38:23.347Z,24.60
2022-09-30T15:41:10.707Z,24.60
2022-09-30T15:43:53.402Z,24.60
2022-09-30T15:46:36.827Z,24.60
2022-09-30T15:49:30.892Z,24.60
2022-09-30T15:52:32.160Z,24.60
2022-09-30T15:55:02.232Z,24.60
2022-09-30T15:57:53.375Z,24.60
2022-09-30T16:00:44.011Z,24.60
2022-09-30T16:03:29.329Z,24.60
2022-09-30T16:06:10.231Z,24.60
2022-09-30T16:08:48.401Z,24.60
2022-09-30T16:11:36.779Z,24.60
2022-09-30T16:14:10.780Z,24.50
2022-09-30T16:16:41.052Z,24.60
2022-09-30T16:19:20.289Z,24.50
2022-09-30T16:21:52.639Z,24.60
2022-09-30T16:24:45.876Z,24.60
2022-09-30T16:27:32.091Z,24.50
2022-09-30T16:30:02.977Z,24.50
2022-09-30T16:32:38.665Z,24.50
2022-09-30T16:35:12.978Z,24.50
2022-09-30T16:37:44.655Z,24.50
2022-09-30T16:40:26.739Z,24.50
2022-09-30T16:42:57.457Z,24.50
2022-09-30T16:45:33.024Z,24.50
2022-09-30T16:48:04.152Z,24.50
2022-09-30T16:51:11.390Z,24.50
2022-09-30T16:53:41.110Z,24.50
2022-09-30T16:56:19.771Z,24.50
2022-09-30T16:58:50.054Z,24.50
2022-09-30T17:01:23.118Z,24.50
2022-09-30T17:03:54.557Z,24.50
2022-09-30T17:06:30.733Z,24.50
2022-09-30T17:09:03.011Z,24.50
2022-09-30T17:11:35.125Z,24.50
2022-09-30T17:14:06.504Z,24.50
2022-09-30T17:16:37.714Z,24.50
2022-09-30T17:19:07.585Z,24.50
2022-09-30T17:21:37.549Z,24.50
2022-09-30T17:24:07.527Z,24.50
2022-09-30T17:26:37.265Z,24.50
2022-09-30T17:29:31.004Z,24.50
2022-09-30T17:31:57.221Z,24.40
2022-09-30T17:34:29.577Z,24.40
2022-09-30T17:36:59.295Z,24.40
2022-09-30T17:39:32.300Z,24.40
2022-09-30T17:42:21.594Z,24.40
2022-09-30T17:44:51.360Z,24.40
2022-09-30T17:47:23.071Z,24.40
2022-09-30T17:49:53.272Z,24.40
2022-09-30T17:52:23.123Z,24.40
2022-09-30T17:54:53.729Z,24.40
2022-09-30T17:57:23.983Z,24.50
2022-09-30T17:59:53.752Z,24.40
2022-09-30T18:02:23.599Z,24.40
2022-09-30T18:04:53.367Z,24.40
2022-09-30T18:07:25.505Z,24.40
2022-09-30T18:09:55.205Z,24.40
2022-09-30T18:12:25.107Z,24.40
2022-09-30T18:14:55.173Z,24.40
2022-09-30T18:17:26.576Z,24.40
2022-09-30T18:19:56.211Z,24.40
2022-09-30T18:22:26.007Z,24.50
2022-09-30T18:25:15.267Z,24.40
2022-09-30T18:27:44.906Z,24.40
2022-09-30T18:30:14.925Z,24.50
2022-09-30T18:32:44.675Z,24.40
2022-09-30T18:35:14.814Z,24.40
2022-09-30T18:37:44.967Z,24.50
2022-09-30T18:40:15.384Z,24.40
2022-09-30T18:42:46.436Z,24.40
2022-09-30T18:45:16.673Z,24.40
2022-09-30T18:47:47.546Z,24.40
2022-09-30T18:50:19.624Z,24.50
2022-09-30T18:52:49.536Z,24.50
2022-09-30T18:55:20.390Z,24.50
2022-09-30T18:57:51.864Z,24.50
2022-09-30T19:00:22.271Z,24.50
2022-09-30T19:02:54.274Z,24.40
2022-09-30T19:05:24.209Z,24.50
2022-09-30T19:07:55.795Z,24.50
2022-09-30T19:10:26.744Z,24.40
2022-09-30T19:12:56.603Z,24.40
2022-09-30T19:15:26.496Z,24.40
2022-09-30T19:17:57.180Z,24.40
2022-09-30T19:20:27.247Z,24.40
2022-09-30T19:22:57.349Z,24.40
2022-09-30T19:25:27.402Z,24.30
2022-09-30T19:27:57.856Z,24.30
2022-09-30T19:30:28.339Z,24.30
2022-09-30T19:33:02.161Z,24.30
2022-09-30T19:35:39.771Z,24.30
2022-09-30T19:38:11.013Z,24.30
2022-09-30T19:40:41.697Z,24.20
2022-09-30T19:43:11.637Z,24.20
2022-09-30T19:45:41.717Z,24.20
2022-09-30T19:48:11.817Z,24.20
2022-09-30T19:50:41.990Z,24.20
2022-09-30T19:53:16.867Z,24.20
2022-09-30T19:55:51.060Z,24.20
2022-09-30T19:58:20.811Z,24.20
2022-09-30T20:00:57.938Z,24.20
2022-09-30T20:03:28.145Z,24.10
2022-09-30T20:06:10.604Z,24.10
2022-09-30T20:08:40.416Z,24.10
2022-09-30T20:11:15.824Z,24.10
2022-09-30T20:13:45.711Z,24.10
2022-09-30T20:16:17.168Z,24.20
2022-09-30T20:18:46.856Z,24.20
2022-09-30T20:21:18.364Z,24.20
2022-09-30T20:23:50.728Z,24.20
2022-09-30T20:26:20.314Z,24.20
2022-09-30T20:28:49.890Z,24.20
2022-09-30T20:31:19.630Z,24.20
2022-09-30T20:33:50.634Z,24.20
2022-09-30T20:36:21.568Z,24.20
2022-09-30T20:38:55.450Z,24.20
2022-09-30T20:41:25.001Z,24.20
2022-09-30T20:43:55.357Z,24.20
2022-09-30T20:46:26.095Z,24.20
2022-09-30T20:48:56.974Z,24.20
2022-09-30T20:51:27.211Z,24.20
2022-09-30T20:53:58.231Z,24.20
2022-09-30T20:56:49.537Z,24.20
2022-09-30T20:59:20.614Z,24.20
2022-09-30T21:01:50.148Z,24.20
2022-09-30T21:04:19.728Z,24.20
2022-09-30T21:06:49.496Z,24.20
2022-09-30T21:09:19.147Z,24.20
2022-09-30T21:11:48.752Z,24.20
2022-09-30T21:14:21.436Z,24.20
2022-09-30T21:16:51.111Z,24.20
2022-09-30T21:19:20.628Z,24.20
2022-09-30T21:21:50.346Z,24.20
2022-09-30T21:24:19.947Z,24.20
2022-09-30T21:26:49.565Z,24.20
2022-09-30T21:29:19.976Z,24.20
2022-09-30T21:31:49.591Z,24.20
2022-09-30T21:34:19.581Z,24.20
2022-09-30T21:36:50.977Z,24.20
2022-09-30T21:39:20.898Z,24.20
2022-09-30T21:41:50.831Z,24.20
2022-09-30T21:44:20.799Z,24.20
2022-09-30T21:46:52.080Z,24.20
2022-09-30T21:49:27.815Z,24.20
2022-09-30T21:51:57.873Z,24.20
2022-09-30T21:54:29.329Z,24.20
2022-09-30T21:56:58.919Z,24.20
2022-09-30T21:59:28.651Z,24.20
2022-09-30T22:01:58.366Z,24.20
2022-09-30T22:04:28.073Z,24.20
2022-09-30T22:06:57.701Z,24.20
2022-09-30T22:09:27.318Z,24.20
2022-09-30T22:11:56.967Z,24.20
2022-09-30T22:14:27.078Z,24.30
2022-09-30T22:16:57.351Z,24.20
2022-09-30T22:19:27.123Z,24.20
2022-09-30T22:21:56.764Z,24.20
2022-09-30T22:24:26.381Z,24.20
2022-09-30T22:26:56.129Z,24.20
2022-09-30T22:29:25.811Z,24.20
2022-09-30T22:31:55.396Z,24.20
2022-09-30T22:34:44.726Z,24.20
2022-09-30T22:37:34.589Z,24.20
2022-09-30T22:40:04.308Z,24.20
2022-09-30T22:42:33.926Z,24.20
2022-09-30T22:45:05.171Z,24.20
2022-09-30T22:47:34.729Z,24.20
2022-09-30T22:50:06.954Z,24.20
2022-09-30T22:52:37.164Z,24.20
2022-09-30T22:55:07.507Z,24.20
2022-09-30T22:57:37.505Z,24.20
2022-09-30T23:00:08.246Z,24.20
2022-09-30T23:02:38.358Z,24.20
2022-09-30T23:05:08.879Z,24.20
2022-09-30T23:07:38.727Z,24.20
2022-09-30T23:10:10.865Z,24.20
2022-09-30T23:12:40.765Z,24.20
2022-09-30T23:15:11.025Z,24.20
2022-09-30T23:17:41.112Z,24.10
2022-09-30T23:20:11.650Z,24.20
2022-09-30T23:22:41.622Z,24.10
2022-09-30T23:25:11.997Z,24.10
2022-09-30T23:27:42.160Z,24.10
2022-09-30T23:30:12.395Z,24.10
2022-09-30T23:32:42.270Z,24.10
2022-09-30T23:35:12.070Z,24.10
2022-09-30T23:37:42.167Z,24.10
2022-09-30T23:40:12.334Z,24.10
2022-09-30T23:42:42.072Z,24.10
2022-09-30T23:45:12.225Z,24.20
2022-09-30T23:47:41.971Z,24.20
2022-09-30T23:50:13.448Z,24.20
2022-09-30T23:52:45.393Z,24.20
2022-09-30T23:55:15.075Z,24.20
2022-09-30T23:57:48.424Z,24.30
